sensor_id;sensor_type;location;lat;lon;timestamp;pressure;altitude;pressure_sealevel;temperature;humidity
46045;BME280;31781;54.094;13.428;2024-02-23T00:00:06;98117.31;;;10.95;87.35
46045;BME280;31781;54.094;13.428;2024-02-23T00:06:08;98120.59;;;10.97;87.52
46045;BME280;31781;54.094;13.428;2024-02-23T00:12:11;98123.56;;;11.01;87.75
46045;BME280;31781;54.094;13.428;2024-02-23T00:18:13;98122.72;;;11.05;87.33
46045;BME280;31781;54.094;13.428;2024-02-23T00:24:15;98105.03;;;11.08;87.17
46045;BME280;31781;54.094;13.428;2024-02-23T00:30:18;98123.25;;;11.12;86.94
46045;BME280;31781;54.094;13.428;2024-02-23T00:36:20;98113.72;;;11.15;85.99
46045;BME280;31781;54.094;13.428;2024-02-23T00:42:22;98090.84;;;11.16;85.79
46045;BME280;31781;54.094;13.428;2024-02-23T00:48:25;98097.38;;;11.20;85.00
46045;BME280;31781;54.094;13.428;2024-02-23T00:54:26;98087.59;;;11.19;84.19
46045;BME280;31781;54.094;13.428;2024-02-23T01:00:28;98103.09;;;11.18;83.76
46045;BME280;31781;54.094;13.428;2024-02-23T01:06:31;98092.75;;;11.20;83.31
46045;BME280;31781;54.094;13.428;2024-02-23T01:12:33;98103.38;;;11.22;83.11
46045;BME280;31781;54.094;13.428;2024-02-23T01:18:34;98102.81;;;11.20;82.54
46045;BME280;31781;54.094;13.428;2024-02-23T01:24:38;98113.44;;;11.21;82.24
46045;BME280;31781;54.094;13.428;2024-02-23T01:30:39;98121.88;;;11.20;81.99
46045;BME280;31781;54.094;13.428;2024-02-23T01:36:41;98146.66;;;11.18;81.97
46045;BME280;31781;54.094;13.428;2024-02-23T01:42:44;98164.88;;;11.18;81.83
46045;BME280;31781;54.094;13.428;2024-02-23T01:48:46;98175.50;;;11.14;80.99
46045;BME280;31781;54.094;13.428;2024-02-23T01:54:48;98189.09;;;11.14;79.96
46045;BME280;31781;54.094;13.428;2024-02-23T02:00:51;98204.34;;;11.15;79.51
46045;BME280;31781;54.094;13.428;2024-02-23T02:06:53;98239.19;;;11.18;79.14
46045;BME280;31781;54.094;13.428;2024-02-23T02:12:55;98271.28;;;11.16;74.38
46045;BME280;31781;54.094;13.428;2024-02-23T02:18:58;98293.88;;;11.17;65.34
46045;BME280;31781;54.094;13.428;2024-02-23T02:24:59;98330.91;;;11.18;64.05
46045;BME280;31781;54.094;13.428;2024-02-23T02:31:01;98342.59;;;11.13;60.22
46045;BME280;31781;54.094;13.428;2024-02-23T02:37:04;98348.84;;;11.04;57.74
46045;BME280;31781;54.094;13.428;2024-02-23T02:43:07;98359.44;;;10.95;58.22
46045;BME280;31781;54.094;13.428;2024-02-23T02:49:08;98359.72;;;10.89;58.20
46045;BME280;31781;54.094;13.428;2024-02-23T02:55:11;98374.09;;;10.79;58.36
46045;BME280;31781;54.094;13.428;2024-02-23T03:01:13;98381.16;;;10.75;60.72
46045;BME280;31781;54.094;13.428;2024-02-23T03:07:16;98399.31;;;10.64;59.80
46045;BME280;31781;54.094;13.428;2024-02-23T03:13:19;98410.47;;;10.58;59.36
46045;BME280;31781;54.094;13.428;2024-02-23T03:19:21;98422.41;;;10.52;60.04
46045;BME280;31781;54.094;13.428;2024-02-23T03:25:22;98446.53;;;10.38;58.03
46045;BME280;31781;54.094;13.428;2024-02-23T03:31:26;98448.09;;;10.29;59.75
46045;BME280;31781;54.094;13.428;2024-02-23T03:37:27;98463.00;;;10.21;59.20
46045;BME280;31781;54.094;13.428;2024-02-23T03:43:29;98477.56;;;10.10;58.17
46045;BME280;31781;54.094;13.428;2024-02-23T03:49:35;98503.59;;;10.01;58.81
46045;BME280;31781;54.094;13.428;2024-02-23T03:55:37;98542.34;;;9.92;56.42
46045;BME280;31781;54.094;13.428;2024-02-23T04:01:39;98552.59;;;9.85;56.42
46045;BME280;31781;54.094;13.428;2024-02-23T04:07:42;98563.09;;;9.76;56.87
46045;BME280;31781;54.094;13.428;2024-02-23T04:13:44;98583.91;;;9.65;55.55
46045;BME280;31781;54.094;13.428;2024-02-23T04:19:48;98605.31;;;9.62;56.84
46045;BME280;31781;54.094;13.428;2024-02-23T04:25:52;98612.31;;;9.53;56.27
46045;BME280;31781;54.094;13.428;2024-02-23T04:31:54;98666.31;;;9.54;56.38
46045;BME280;31781;54.094;13.428;2024-02-23T04:37:55;98700.97;;;9.47;61.91
46045;BME280;31781;54.094;13.428;2024-02-23T04:43:58;98730.63;;;9.32;63.14
46045;BME280;31781;54.094;13.428;2024-02-23T04:50:04;98740.69;;;9.15;63.24
46045;BME280;31781;54.094;13.428;2024-02-23T04:56:06;98765.09;;;8.98;62.95
46045;BME280;31781;54.094;13.428;2024-02-23T05:02:09;98774.31;;;8.80;63.74
46045;BME280;31781;54.094;13.428;2024-02-23T05:08:10;98781.69;;;8.68;64.39
46045;BME280;31781;54.094;13.428;2024-02-23T05:14:12;98786.44;;;8.61;64.62
46045;BME280;31781;54.094;13.428;2024-02-23T05:20:15;98788.75;;;8.53;64.95
46045;BME280;31781;54.094;13.428;2024-02-23T05:26:17;98811.88;;;8.44;64.55
46045;BME280;31781;54.094;13.428;2024-02-23T05:32:19;98819.59;;;8.35;64.46
46045;BME280;31781;54.094;13.428;2024-02-23T05:38:22;98830.16;;;8.25;64.60
46045;BME280;31781;54.094;13.428;2024-02-23T05:44:24;98876.13;;;8.20;64.59
46045;BME280;31781;54.094;13.428;2024-02-23T05:50:26;98890.03;;;8.12;64.62
46045;BME280;31781;54.094;13.428;2024-02-23T05:56:29;98915.34;;;8.06;64.79
46045;BME280;31781;54.094;13.428;2024-02-23T06:02:31;98929.72;;;7.95;65.40
46045;BME280;31781;54.094;13.428;2024-02-23T06:08:33;98935.88;;;7.90;66.85
46045;BME280;31781;54.094;13.428;2024-02-23T06:14:36;98945.41;;;7.81;67.70
46045;BME280;31781;54.094;13.428;2024-02-23T06:20:38;98963.78;;;7.79;68.13
46045;BME280;31781;54.094;13.428;2024-02-23T06:26:39;98975.75;;;7.71;67.44
46045;BME280;31781;54.094;13.428;2024-02-23T06:32:43;98994.00;;;7.64;66.70
46045;BME280;31781;54.094;13.428;2024-02-23T06:38:45;99002.19;;;7.58;66.40
46045;BME280;31781;54.094;13.428;2024-02-23T06:44:47;99044.34;;;7.54;65.67
46045;BME280;31781;54.094;13.428;2024-02-23T06:50:50;99064.66;;;7.45;65.76
46045;BME280;31781;54.094;13.428;2024-02-23T06:56:52;99081.09;;;7.43;66.12
46045;BME280;31781;54.094;13.428;2024-02-23T07:02:54;99117.78;;;7.39;65.44
46045;BME280;31781;54.094;13.428;2024-02-23T07:08:57;99130.28;;;7.40;65.64
46045;BME280;31781;54.094;13.428;2024-02-23T07:14:58;99135.22;;;7.43;67.03
46045;BME280;31781;54.094;13.428;2024-02-23T07:21:00;99154.31;;;7.48;67.42
46045;BME280;31781;54.094;13.428;2024-02-23T07:27:03;99160.47;;;7.55;66.30
46045;BME280;31781;54.094;13.428;2024-02-23T07:33:05;99171.88;;;7.75;64.81
46045;BME280;31781;54.094;13.428;2024-02-23T07:39:07;99182.50;;;8.18;64.06
46045;BME280;31781;54.094;13.428;2024-02-23T07:45:10;99188.28;;;8.22;62.73
46045;BME280;31781;54.094;13.428;2024-02-23T07:51:12;99204.84;;;8.14;60.99
46045;BME280;31781;54.094;13.428;2024-02-23T07:57:14;99221.66;;;8.04;61.06
46045;BME280;31781;54.094;13.428;2024-02-23T08:03:17;99219.84;;;7.98;61.69
46045;BME280;31781;54.094;13.428;2024-02-23T08:09:19;99228.38;;;8.02;62.44
46045;BME280;31781;54.094;13.428;2024-02-23T08:15:21;99242.22;;;7.94;61.78
46045;BME280;31781;54.094;13.428;2024-02-23T08:21:24;99244.22;;;7.87;62.39
46045;BME280;31781;54.094;13.428;2024-02-23T08:27:26;99260.69;;;8.15;61.40
46045;BME280;31781;54.094;13.428;2024-02-23T08:33:28;99266.72;;;8.47;60.64
46045;BME280;31781;54.094;13.428;2024-02-23T08:39:31;99272.44;;;8.80;59.53
46045;BME280;31781;54.094;13.428;2024-02-23T08:45:34;99287.72;;;9.04;57.58
46045;BME280;31781;54.094;13.428;2024-02-23T08:51:36;99290.81;;;9.31;57.59
46045;BME280;31781;54.094;13.428;2024-02-23T08:57:39;99298.56;;;9.39;56.07
46045;BME280;31781;54.094;13.428;2024-02-23T09:03:40;99309.06;;;9.59;54.75
46045;BME280;31781;54.094;13.428;2024-02-23T09:09:42;99321.94;;;9.75;54.07
46045;BME280;31781;54.094;13.428;2024-02-23T09:15:45;99332.88;;;9.92;54.05
46045;BME280;31781;54.094;13.428;2024-02-23T09:21:47;99335.31;;;10.16;54.05
46045;BME280;31781;54.094;13.428;2024-02-23T09:27:49;99350.66;;;10.34;53.24
46045;BME280;31781;54.094;13.428;2024-02-23T09:33:52;99369.78;;;10.39;52.46
46045;BME280;31781;54.094;13.428;2024-02-23T09:39:53;99383.28;;;10.34;52.20
46045;BME280;31781;54.094;13.428;2024-02-23T09:45:56;99379.63;;;10.29;51.81
46045;BME280;31781;54.094;13.428;2024-02-23T09:52:00;99414.00;;;10.35;51.97
46045;BME280;31781;54.094;13.428;2024-02-23T09:58:03;99407.81;;;10.51;50.12
46045;BME280;31781;54.094;13.428;2024-02-23T10:04:06;99407.00;;;10.79;49.74
46045;BME280;31781;54.094;13.428;2024-02-23T10:10:10;99428.81;;;10.95;49.97
46045;BME280;31781;54.094;13.428;2024-02-23T10:16:11;99435.91;;;10.96;49.90
46045;BME280;31781;54.094;13.428;2024-02-23T10:22:16;99435.22;;;11.17;49.21
46045;BME280;31781;54.094;13.428;2024-02-23T10:28:19;99465.28;;;11.22;49.94
46045;BME280;31781;54.094;13.428;2024-02-23T10:34:21;99471.22;;;11.19;47.81
46045;BME280;31781;54.094;13.428;2024-02-23T10:40:24;99471.28;;;11.24;48.30
46045;BME280;31781;54.094;13.428;2024-02-23T10:46:30;99468.69;;;11.46;48.43
46045;BME280;31781;54.094;13.428;2024-02-23T10:52:34;99479.00;;;11.61;45.86
46045;BME280;31781;54.094;13.428;2024-02-23T10:58:36;99464.09;;;11.80;47.40
46045;BME280;31781;54.094;13.428;2024-02-23T11:04:39;99473.91;;;11.98;46.90
46045;BME280;31781;54.094;13.428;2024-02-23T11:10:42;99484.09;;;12.02;43.56
46045;BME280;31781;54.094;13.428;2024-02-23T11:16:43;99486.06;;;11.90;44.35
46045;BME280;31781;54.094;13.428;2024-02-23T11:22:51;99513.50;;;11.84;45.58
46045;BME280;31781;54.094;13.428;2024-02-23T11:28:53;99525.06;;;11.74;44.54
46045;BME280;31781;54.094;13.428;2024-02-23T11:34:55;99519.03;;;11.60;44.51
46045;BME280;31781;54.094;13.428;2024-02-23T11:40:59;99529.75;;;11.50;43.80
46045;BME280;31781;54.094;13.428;2024-02-23T11:47:02;99536.28;;;11.49;44.24
46045;BME280;31781;54.094;13.428;2024-02-23T11:53:04;99537.31;;;11.60;45.85
46045;BME280;31781;54.094;13.428;2024-02-23T11:59:07;99554.00;;;11.63;44.75
46045;BME280;31781;54.094;13.428;2024-02-23T12:05:09;99554.72;;;11.59;44.69
46045;BME280;31781;54.094;13.428;2024-02-23T12:11:11;99572.06;;;11.53;45.18
46045;BME280;31781;54.094;13.428;2024-02-23T12:17:16;99584.97;;;11.46;44.94
46045;BME280;31781;54.094;13.428;2024-02-23T12:23:17;99592.44;;;11.39;44.92
46045;BME280;31781;54.094;13.428;2024-02-23T12:29:19;99585.84;;;11.35;45.04
46045;BME280;31781;54.094;13.428;2024-02-23T12:35:22;99582.78;;;11.31;44.75
46045;BME280;31781;54.094;13.428;2024-02-23T12:41:24;99609.53;;;11.34;44.29
46045;BME280;31781;54.094;13.428;2024-02-23T12:47:26;99597.13;;;11.27;45.45
46045;BME280;31781;54.094;13.428;2024-02-23T12:53:33;99605.66;;;11.30;46.36
46045;BME280;31781;54.094;13.428;2024-02-23T12:59:36;99609.63;;;11.39;45.72
46045;BME280;31781;54.094;13.428;2024-02-23T13:05:37;99617.06;;;11.44;45.68
46045;BME280;31781;54.094;13.428;2024-02-23T13:11:40;99615.88;;;11.51;46.23
46045;BME280;31781;54.094;13.428;2024-02-23T13:17:42;99622.38;;;11.50;45.50
46045;BME280;31781;54.094;13.428;2024-02-23T13:23:44;99615.63;;;11.53;45.38
46045;BME280;31781;54.094;13.428;2024-02-23T13:29:48;99630.06;;;11.53;46.40
46045;BME280;31781;54.094;13.428;2024-02-23T13:35:49;99629.97;;;11.48;45.18
46045;BME280;31781;54.094;13.428;2024-02-23T13:41:51;99628.53;;;11.46;46.04
46045;BME280;31781;54.094;13.428;2024-02-23T13:47:58;99626.56;;;11.41;47.71
46045;BME280;31781;54.094;13.428;2024-02-23T13:54:00;99628.81;;;11.44;45.66
46045;BME280;31781;54.094;13.428;2024-02-23T14:00:03;99645.88;;;11.40;45.98
46045;BME280;31781;54.094;13.428;2024-02-23T14:06:06;99648.72;;;11.33;46.08
46045;BME280;31781;54.094;13.428;2024-02-23T14:12:08;99660.94;;;11.31;46.52
46045;BME280;31781;54.094;13.428;2024-02-23T14:18:10;99672.28;;;11.28;46.28
46045;BME280;31781;54.094;13.428;2024-02-23T14:24:13;99669.56;;;11.28;45.85
46045;BME280;31781;54.094;13.428;2024-02-23T14:30:15;99680.00;;;11.31;47.26
46045;BME280;31781;54.094;13.428;2024-02-23T14:36:16;99681.16;;;11.35;47.17
46045;BME280;31781;54.094;13.428;2024-02-23T14:42:20;99680.91;;;11.36;47.92
46045;BME280;31781;54.094;13.428;2024-02-23T14:48:21;99686.22;;;11.43;47.88
46045;BME280;31781;54.094;13.428;2024-02-23T14:54:23;99691.94;;;11.41;48.16
46045;BME280;31781;54.094;13.428;2024-02-23T15:00:26;99706.00;;;11.38;48.58
46045;BME280;31781;54.094;13.428;2024-02-23T15:06:28;99698.47;;;11.29;47.08
46045;BME280;31781;54.094;13.428;2024-02-23T15:12:30;99701.78;;;11.31;47.97
46045;BME280;31781;54.094;13.428;2024-02-23T15:18:33;99722.25;;;11.21;45.78
46045;BME280;31781;54.094;13.428;2024-02-23T15:24:34;99714.81;;;11.17;46.38
46045;BME280;31781;54.094;13.428;2024-02-23T15:30:36;99703.22;;;11.10;48.07
46045;BME280;31781;54.094;13.428;2024-02-23T15:36:39;99723.44;;;11.02;47.65
46045;BME280;31781;54.094;13.428;2024-02-23T15:42:41;99744.16;;;10.92;48.46
46045;BME280;31781;54.094;13.428;2024-02-23T15:48:43;99742.97;;;10.88;49.96
46045;BME280;31781;54.094;13.428;2024-02-23T15:54:46;99754.66;;;10.77;50.22
46045;BME280;31781;54.094;13.428;2024-02-23T16:00:48;99770.97;;;10.65;50.49
46045;BME280;31781;54.094;13.428;2024-02-23T16:06:50;99776.38;;;10.53;51.60
46045;BME280;31781;54.094;13.428;2024-02-23T16:12:53;99780.13;;;10.41;51.57
46045;BME280;31781;54.094;13.428;2024-02-23T16:18:54;99783.47;;;10.24;51.79
46045;BME280;31781;54.094;13.428;2024-02-23T16:24:56;99795.56;;;10.10;52.85
46045;BME280;31781;54.094;13.428;2024-02-23T16:30:59;99810.13;;;9.98;52.74
46045;BME280;31781;54.094;13.428;2024-02-23T16:37:01;99823.69;;;9.86;53.17
46045;BME280;31781;54.094;13.428;2024-02-23T16:43:03;99822.78;;;9.74;53.30
46045;BME280;31781;54.094;13.428;2024-02-23T16:49:06;99823.97;;;9.60;53.76
46045;BME280;31781;54.094;13.428;2024-02-23T16:55:08;99822.59;;;9.51;54.26
46045;BME280;31781;54.094;13.428;2024-02-23T17:01:10;99823.31;;;9.40;54.22
46045;BME280;31781;54.094;13.428;2024-02-23T17:07:13;99822.81;;;9.31;54.90
46045;BME280;31781;54.094;13.428;2024-02-23T17:13:16;99823.28;;;9.21;54.73
46045;BME280;31781;54.094;13.428;2024-02-23T17:19:18;99831.31;;;9.10;55.27
46045;BME280;31781;54.094;13.428;2024-02-23T17:25:21;99847.28;;;9.00;55.98
46045;BME280;31781;54.094;13.428;2024-02-23T17:31:23;99852.38;;;8.90;55.23
46045;BME280;31781;54.094;13.428;2024-02-23T17:37:27;99865.56;;;8.79;55.27
46045;BME280;31781;54.094;13.428;2024-02-23T17:43:30;99872.53;;;8.69;55.54
46045;BME280;31781;54.094;13.428;2024-02-23T17:49:32;99877.16;;;8.62;55.56
46045;BME280;31781;54.094;13.428;2024-02-23T17:55:34;99889.91;;;8.55;55.80
46045;BME280;31781;54.094;13.428;2024-02-23T18:01:37;99887.25;;;8.48;56.13
46045;BME280;31781;54.094;13.428;2024-02-23T18:07:39;99883.75;;;8.41;56.56
46045;BME280;31781;54.094;13.428;2024-02-23T18:13:41;99889.41;;;8.33;57.09
46045;BME280;31781;54.094;13.428;2024-02-23T18:19:44;99896.91;;;8.24;56.73
46045;BME280;31781;54.094;13.428;2024-02-23T18:25:46;99893.63;;;8.16;57.84
46045;BME280;31781;54.094;13.428;2024-02-23T18:31:48;99889.88;;;8.10;57.79
46045;BME280;31781;54.094;13.428;2024-02-23T18:37:51;99894.50;;;8.03;57.51
46045;BME280;31781;54.094;13.428;2024-02-23T18:43:52;99906.19;;;7.97;58.23
46045;BME280;31781;54.094;13.428;2024-02-23T18:49:54;99906.22;;;7.91;58.70
46045;BME280;31781;54.094;13.428;2024-02-23T18:55:57;99917.47;;;7.81;59.19
46045;BME280;31781;54.094;13.428;2024-02-23T19:01:59;99911.44;;;7.72;58.81
46045;BME280;31781;54.094;13.428;2024-02-23T19:08:01;99900.63;;;7.66;59.35
46045;BME280;31781;54.094;13.428;2024-02-23T19:14:04;99896.25;;;7.58;59.17
46045;BME280;31781;54.094;13.428;2024-02-23T19:20:07;99899.16;;;7.50;59.96
46045;BME280;31781;54.094;13.428;2024-02-23T19:26:09;99895.63;;;7.43;59.75
46045;BME280;31781;54.094;13.428;2024-02-23T19:32:12;99900.22;;;7.36;60.10
46045;BME280;31781;54.094;13.428;2024-02-23T19:38:13;99901.91;;;7.30;59.53
46045;BME280;31781;54.094;13.428;2024-02-23T19:44:15;99901.91;;;7.24;59.85
46045;BME280;31781;54.094;13.428;2024-02-23T19:50:18;99908.97;;;7.18;60.53
46045;BME280;31781;54.094;13.428;2024-02-23T19:56:20;99910.00;;;7.11;59.95
46045;BME280;31781;54.094;13.428;2024-02-23T20:02:22;99911.88;;;7.04;60.19
46045;BME280;31781;54.094;13.428;2024-02-23T20:08:25;99925.16;;;6.99;60.71
46045;BME280;31781;54.094;13.428;2024-02-23T20:14:27;99910.44;;;6.95;59.80
46045;BME280;31781;54.094;13.428;2024-02-23T20:20:28;99924.13;;;6.87;60.49
46045;BME280;31781;54.094;13.428;2024-02-23T20:26:33;99923.72;;;6.83;60.63
46045;BME280;31781;54.094;13.428;2024-02-23T20:32:36;99929.72;;;6.78;61.42
46045;BME280;31781;54.094;13.428;2024-02-23T20:38:38;99923.25;;;6.73;61.19
46045;BME280;31781;54.094;13.428;2024-02-23T20:44:41;99929.28;;;6.68;61.22
46045;BME280;31781;54.094;13.428;2024-02-23T20:50:42;99929.06;;;6.63;60.84
46045;BME280;31781;54.094;13.428;2024-02-23T20:56:44;99931.34;;;6.60;61.15
46045;BME280;31781;54.094;13.428;2024-02-23T21:02:47;99931.75;;;6.57;61.42
46045;BME280;31781;54.094;13.428;2024-02-23T21:08:49;99939.44;;;6.53;61.69
46045;BME280;31781;54.094;13.428;2024-02-23T21:14:51;99960.63;;;6.50;61.73
46045;BME280;31781;54.094;13.428;2024-02-23T21:20:54;99963.91;;;6.45;62.00
46045;BME280;31781;54.094;13.428;2024-02-23T21:26:56;99968.88;;;6.42;61.70
46045;BME280;31781;54.094;13.428;2024-02-23T21:32:58;99985.91;;;6.35;62.00
46045;BME280;31781;54.094;13.428;2024-02-23T21:39:01;99987.13;;;6.33;61.88
46045;BME280;31781;54.094;13.428;2024-02-23T21:45:04;99984.00;;;6.29;62.59
46045;BME280;31781;54.094;13.428;2024-02-23T21:51:06;99991.66;;;6.26;62.58
46045;BME280;31781;54.094;13.428;2024-02-23T21:57:10;99981.44;;;6.21;62.02
46045;BME280;31781;54.094;13.428;2024-02-23T22:03:12;99978.53;;;6.16;62.64
46045;BME280;31781;54.094;13.428;2024-02-23T22:09:13;99974.34;;;6.14;62.81
46045;BME280;31781;54.094;13.428;2024-02-23T22:15:17;99973.72;;;6.12;62.68
46045;BME280;31781;54.094;13.428;2024-02-23T22:21:18;99975.78;;;6.10;63.03
46045;BME280;31781;54.094;13.428;2024-02-23T22:27:20;99991.53;;;6.06;63.09
46045;BME280;31781;54.094;13.428;2024-02-23T22:33:23;99999.03;;;6.04;62.83
46045;BME280;31781;54.094;13.428;2024-02-23T22:39:25;99998.59;;;6.01;63.17
46045;BME280;31781;54.094;13.428;2024-02-23T22:45:27;100013.31;;;5.98;63.36
46045;BME280;31781;54.094;13.428;2024-02-23T22:51:30;100025.31;;;5.96;63.12
46045;BME280;31781;54.094;13.428;2024-02-23T22:57:31;100013.47;;;5.90;63.62
46045;BME280;31781;54.094;13.428;2024-02-23T23:03:33;100014.88;;;5.86;63.81
46045;BME280;31781;54.094;13.428;2024-02-23T23:09:36;100020.44;;;5.84;63.80
46045;BME280;31781;54.094;13.428;2024-02-23T23:15:37;100023.53;;;5.81;63.71
46045;BME280;31781;54.094;13.428;2024-02-23T23:21:39;100036.59;;;5.78;64.35
46045;BME280;31781;54.094;13.428;2024-02-23T23:27:42;100044.69;;;5.78;64.11
46045;BME280;31781;54.094;13.428;2024-02-23T23:33:44;100041.38;;;5.76;64.00
46045;BME280;31781;54.094;13.428;2024-02-23T23:39:46;100044.63;;;5.71;64.49
46045;BME280;31781;54.094;13.428;2024-02-23T23:45:49;100033.00;;;5.71;64.44
46045;BME280;31781;54.094;13.428;2024-02-23T23:51:51;100024.28;;;5.69;65.12
46045;BME280;31781;54.094;13.428;2024-02-23T23:58:04;100012.22;;;5.65;64.82
